sensor_id;sensor_type;location;lat;lon;timestamp;temperature;humidity
54684;DHT22;40582;53.100;6.686;2023-02-28T00:01:32;4.00;99.90
54684;DHT22;40582;53.100;6.686;2023-02-28T00:03:58;4.00;99.90
54684;DHT22;40582;53.100;6.686;2023-02-28T00:06:24;4.00;99.90
54684;DHT22;40582;53.100;6.686;2023-02-28T00:08:49;4.00;99.90
54684;DHT22;40582;53.100;6.686;2023-02-28T00:11:16;4.00;99.90
54684;DHT22;40582;53.100;6.686;2023-02-28T00:13:44;4.10;99.90
54684;DHT22;40582;53.100;6.686;2023-02-28T00:16:18;4.00;99.90
54684;DHT22;40582;53.100;6.686;2023-02-28T00:18:44;4.00;99.90
54684;DHT22;40582;53.100;6.686;2023-02-28T00:21:09;4.10;99.90
54684;DHT22;40582;53.100;6.686;2023-02-28T00:23:36;4.00;99.90
54684;DHT22;40582;53.100;6.686;2023-02-28T00:26:02;3.90;99.90
54684;DHT22;40582;53.100;6.686;2023-02-28T00:28:28;4.00;99.90
54684;DHT22;40582;53.100;6.686;2023-02-28T00:30:54;4.00;99.90
54684;DHT22;40582;53.100;6.686;2023-02-28T00:33:19;4.00;99.90
54684;DHT22;40582;53.100;6.686;2023-02-28T00:35:45;4.00;99.90
54684;DHT22;40582;53.100;6.686;2023-02-28T00:38:12;4.00;99.90
54684;DHT22;40582;53.100;6.686;2023-02-28T00:40:38;4.20;99.90
54684;DHT22;40582;53.100;6.686;2023-02-28T00:43:04;4.10;99.90
54684;DHT22;40582;53.100;6.686;2023-02-28T00:45:30;4.10;99.90
54684;DHT22;40582;53.100;6.686;2023-02-28T00:47:55;4.10;99.90
54684;DHT22;40582;53.100;6.686;2023-02-28T00:50:21;4.10;99.90
54684;DHT22;40582;53.100;6.686;2023-02-28T00:52:47;4.10;99.90
54684;DHT22;40582;53.100;6.686;2023-02-28T00:55:14;4.10;99.90
54684;DHT22;40582;53.100;6.686;2023-02-28T00:57:39;4.00;99.90
54684;DHT22;40582;53.100;6.686;2023-02-28T01:00:06;4.00;99.90
54684;DHT22;40582;53.100;6.686;2023-02-28T01:02:32;4.00;99.90
54684;DHT22;40582;53.100;6.686;2023-02-28T01:04:58;4.30;99.90
54684;DHT22;40582;53.100;6.686;2023-02-28T01:07:24;3.90;99.90
54684;DHT22;40582;53.100;6.686;2023-02-28T01:09:49;4.00;99.90
54684;DHT22;40582;53.100;6.686;2023-02-28T01:12:15;4.00;99.90
54684;DHT22;40582;53.100;6.686;2023-02-28T01:14:41;4.40;99.90
54684;DHT22;40582;53.100;6.686;2023-02-28T01:17:08;4.00;99.90
54684;DHT22;40582;53.100;6.686;2023-02-28T01:19:34;4.00;99.90
54684;DHT22;40582;53.100;6.686;2023-02-28T01:22:02;4.00;99.90
54684;DHT22;40582;53.100;6.686;2023-02-28T01:24:29;4.00;99.90
54684;DHT22;40582;53.100;6.686;2023-02-28T01:26:54;4.10;99.90
54684;DHT22;40582;53.100;6.686;2023-02-28T01:29:20;4.10;99.90
54684;DHT22;40582;53.100;6.686;2023-02-28T01:31:46;4.10;99.90
54684;DHT22;40582;53.100;6.686;2023-02-28T01:34:11;4.20;99.90
54684;DHT22;40582;53.100;6.686;2023-02-28T01:36:37;4.10;99.90
54684;DHT22;40582;53.100;6.686;2023-02-28T01:39:04;4.10;99.90
54684;DHT22;40582;53.100;6.686;2023-02-28T01:41:32;4.20;99.90
54684;DHT22;40582;53.100;6.686;2023-02-28T01:44:07;4.20;99.90
54684;DHT22;40582;53.100;6.686;2023-02-28T01:46:35;4.10;99.90
54684;DHT22;40582;53.100;6.686;2023-02-28T01:49:16;4.10;99.90
54684;DHT22;40582;53.100;6.686;2023-02-28T01:51:46;4.30;99.90
54684;DHT22;40582;53.100;6.686;2023-02-28T01:54:24;4.20;99.90
54684;DHT22;40582;53.100;6.686;2023-02-28T01:57:01;4.20;99.90
54684;DHT22;40582;53.100;6.686;2023-02-28T01:59:37;4.20;99.90
54684;DHT22;40582;53.100;6.686;2023-02-28T02:02:06;4.20;99.90
54684;DHT22;40582;53.100;6.686;2023-02-28T02:04:42;4.20;99.90
54684;DHT22;40582;53.100;6.686;2023-02-28T02:07:13;4.30;99.90
54684;DHT22;40582;53.100;6.686;2023-02-28T02:09:39;4.20;99.90
54684;DHT22;40582;53.100;6.686;2023-02-28T02:15:16;4.20;99.90
54684;DHT22;40582;53.100;6.686;2023-02-28T02:17:49;4.20;99.90
54684;DHT22;40582;53.100;6.686;2023-02-28T02:28:41;4.20;99.90
54684;DHT22;40582;53.100;6.686;2023-02-28T02:39:46;4.20;99.90
54684;DHT22;40582;53.100;6.686;2023-02-28T02:42:24;4.20;99.90
54684;DHT22;40582;53.100;6.686;2023-02-28T02:45:08;4.20;99.90
54684;DHT22;40582;53.100;6.686;2023-02-28T02:47:35;4.20;99.90
54684;DHT22;40582;53.100;6.686;2023-02-28T02:50:05;4.10;99.90
54684;DHT22;40582;53.100;6.686;2023-02-28T02:52:42;4.10;99.90
54684;DHT22;40582;53.100;6.686;2023-02-28T02:55:12;4.10;99.90
54684;DHT22;40582;53.100;6.686;2023-02-28T02:57:59;4.20;99.90
54684;DHT22;40582;53.100;6.686;2023-02-28T03:00:35;4.50;99.90
54684;DHT22;40582;53.100;6.686;2023-02-28T03:03:03;4.10;99.90
54684;DHT22;40582;53.100;6.686;2023-02-28T03:05:34;4.10;99.90
54684;DHT22;40582;53.100;6.686;2023-02-28T03:08:03;4.20;99.90
54684;DHT22;40582;53.100;6.686;2023-02-28T03:10:37;4.10;99.90
54684;DHT22;40582;53.100;6.686;2023-02-28T03:24:11;4.10;99.90
54684;DHT22;40582;53.100;6.686;2023-02-28T03:26:52;4.10;99.90
54684;DHT22;40582;53.100;6.686;2023-02-28T03:29:24;4.10;99.90
54684;DHT22;40582;53.100;6.686;2023-02-28T03:31:59;4.10;99.90
54684;DHT22;40582;53.100;6.686;2023-02-28T03:34:37;4.10;99.90
54684;DHT22;40582;53.100;6.686;2023-02-28T03:37:08;4.10;99.90
54684;DHT22;40582;53.100;6.686;2023-02-28T03:39:40;4.10;99.90
54684;DHT22;40582;53.100;6.686;2023-02-28T03:42:11;4.20;99.90
54684;DHT22;40582;53.100;6.686;2023-02-28T03:44:42;4.00;99.90
54684;DHT22;40582;53.100;6.686;2023-02-28T03:47:16;4.00;99.90
54684;DHT22;40582;53.100;6.686;2023-02-28T03:49:48;4.00;99.90
54684;DHT22;40582;53.100;6.686;2023-02-28T03:52:15;4.00;99.90
54684;DHT22;40582;53.100;6.686;2023-02-28T03:54:46;3.90;99.90
54684;DHT22;40582;53.100;6.686;2023-02-28T04:00:16;3.90;99.90
54684;DHT22;40582;53.100;6.686;2023-02-28T04:02:43;3.80;99.90
54684;DHT22;40582;53.100;6.686;2023-02-28T04:05:09;3.80;99.90
54684;DHT22;40582;53.100;6.686;2023-02-28T04:07:34;3.80;99.90
54684;DHT22;40582;53.100;6.686;2023-02-28T04:10:00;3.80;99.90
54684;DHT22;40582;53.100;6.686;2023-02-28T04:12:26;3.80;99.90
54684;DHT22;40582;53.100;6.686;2023-02-28T04:14:52;3.80;99.90
54684;DHT22;40582;53.100;6.686;2023-02-28T04:17:17;3.80;99.90
54684;DHT22;40582;53.100;6.686;2023-02-28T04:19:44;3.80;99.90
54684;DHT22;40582;53.100;6.686;2023-02-28T04:22:09;3.90;99.90
54684;DHT22;40582;53.100;6.686;2023-02-28T04:24:35;3.80;99.90
54684;DHT22;40582;53.100;6.686;2023-02-28T04:27:02;3.90;99.90
54684;DHT22;40582;53.100;6.686;2023-02-28T04:29:32;3.80;99.90
54684;DHT22;40582;53.100;6.686;2023-02-28T04:32:00;3.80;99.90
54684;DHT22;40582;53.100;6.686;2023-02-28T04:34:27;3.80;99.90
54684;DHT22;40582;53.100;6.686;2023-02-28T04:36:54;3.80;99.90
54684;DHT22;40582;53.100;6.686;2023-02-28T04:39:24;3.80;99.90
54684;DHT22;40582;53.100;6.686;2023-02-28T04:41:50;3.80;99.90
54684;DHT22;40582;53.100;6.686;2023-02-28T04:44:16;3.80;99.90
54684;DHT22;40582;53.100;6.686;2023-02-28T04:46:42;3.80;99.90
54684;DHT22;40582;53.100;6.686;2023-02-28T04:49:11;3.70;99.90
54684;DHT22;40582;53.100;6.686;2023-02-28T04:51:37;3.70;99.90
54684;DHT22;40582;53.100;6.686;2023-02-28T04:54:02;3.70;99.90
54684;DHT22;40582;53.100;6.686;2023-02-28T04:56:28;3.70;99.90
54684;DHT22;40582;53.100;6.686;2023-02-28T04:58:54;4.00;99.90
54684;DHT22;40582;53.100;6.686;2023-02-28T05:01:31;3.70;99.90
54684;DHT22;40582;53.100;6.686;2023-02-28T05:03:59;3.70;99.90
54684;DHT22;40582;53.100;6.686;2023-02-28T05:06:27;3.70;99.90
54684;DHT22;40582;53.100;6.686;2023-02-28T05:08:53;3.70;99.90
54684;DHT22;40582;53.100;6.686;2023-02-28T05:11:22;3.70;99.90
54684;DHT22;40582;53.100;6.686;2023-02-28T05:13:49;3.80;99.90
54684;DHT22;40582;53.100;6.686;2023-02-28T05:16:15;3.70;99.90
54684;DHT22;40582;53.100;6.686;2023-02-28T05:18:41;3.70;99.90
54684;DHT22;40582;53.100;6.686;2023-02-28T05:21:25;3.70;99.90
54684;DHT22;40582;53.100;6.686;2023-02-28T05:23:52;3.70;99.90
54684;DHT22;40582;53.100;6.686;2023-02-28T05:26:18;3.70;99.90
54684;DHT22;40582;53.100;6.686;2023-02-28T05:28:44;4.20;99.90
54684;DHT22;40582;53.100;6.686;2023-02-28T05:31:11;3.80;99.90
54684;DHT22;40582;53.100;6.686;2023-02-28T05:33:37;4.00;99.90
54684;DHT22;40582;53.100;6.686;2023-02-28T05:36:04;3.60;99.90
54684;DHT22;40582;53.100;6.686;2023-02-28T05:38:30;3.60;99.90
54684;DHT22;40582;53.100;6.686;2023-02-28T05:40:55;3.60;99.90
54684;DHT22;40582;53.100;6.686;2023-02-28T05:43:22;3.60;99.90
54684;DHT22;40582;53.100;6.686;2023-02-28T05:45:47;3.60;99.90
54684;DHT22;40582;53.100;6.686;2023-02-28T05:48:13;3.60;99.90
54684;DHT22;40582;53.100;6.686;2023-02-28T05:50:39;3.70;99.90
54684;DHT22;40582;53.100;6.686;2023-02-28T05:53:05;3.50;99.90
54684;DHT22;40582;53.100;6.686;2023-02-28T05:55:30;3.50;99.90
54684;DHT22;40582;53.100;6.686;2023-02-28T05:57:56;3.70;99.90
54684;DHT22;40582;53.100;6.686;2023-02-28T06:00:22;3.50;99.90
54684;DHT22;40582;53.100;6.686;2023-02-28T06:02:48;3.50;99.90
54684;DHT22;40582;53.100;6.686;2023-02-28T06:05:16;3.50;99.90
54684;DHT22;40582;53.100;6.686;2023-02-28T06:07:42;3.40;99.90
54684;DHT22;40582;53.100;6.686;2023-02-28T06:10:12;3.40;99.90
54684;DHT22;40582;53.100;6.686;2023-02-28T06:12:38;3.40;99.90
54684;DHT22;40582;53.100;6.686;2023-02-28T06:15:04;3.50;99.90
54684;DHT22;40582;53.100;6.686;2023-02-28T06:17:30;3.50;99.90
54684;DHT22;40582;53.100;6.686;2023-02-28T06:19:56;3.40;99.90
54684;DHT22;40582;53.100;6.686;2023-02-28T06:22:21;3.50;99.90
54684;DHT22;40582;53.100;6.686;2023-02-28T06:24:47;3.80;99.90
54684;DHT22;40582;53.100;6.686;2023-02-28T06:27:13;3.40;99.90
54684;DHT22;40582;53.100;6.686;2023-02-28T06:29:38;3.50;99.90
54684;DHT22;40582;53.100;6.686;2023-02-28T06:32:07;3.50;99.90
54684;DHT22;40582;53.100;6.686;2023-02-28T06:34:33;3.60;99.90
54684;DHT22;40582;53.100;6.686;2023-02-28T06:36:59;3.40;99.90
54684;DHT22;40582;53.100;6.686;2023-02-28T06:39:28;3.60;99.90
54684;DHT22;40582;53.100;6.686;2023-02-28T06:41:54;3.40;99.90
54684;DHT22;40582;53.100;6.686;2023-02-28T06:44:20;3.90;99.90
54684;DHT22;40582;53.100;6.686;2023-02-28T06:46:46;3.50;99.90
54684;DHT22;40582;53.100;6.686;2023-02-28T06:49:12;3.80;99.90
54684;DHT22;40582;53.100;6.686;2023-02-28T06:51:40;3.40;99.90
54684;DHT22;40582;53.100;6.686;2023-02-28T06:54:07;3.70;99.90
54684;DHT22;40582;53.100;6.686;2023-02-28T06:56:35;3.50;99.90
54684;DHT22;40582;53.100;6.686;2023-02-28T06:59:04;3.40;99.90
54684;DHT22;40582;53.100;6.686;2023-02-28T07:01:29;3.50;99.90
54684;DHT22;40582;53.100;6.686;2023-02-28T07:03:57;3.40;99.90
54684;DHT22;40582;53.100;6.686;2023-02-28T07:06:24;3.50;99.90
54684;DHT22;40582;53.100;6.686;2023-02-28T07:08:53;3.50;99.90
54684;DHT22;40582;53.100;6.686;2023-02-28T07:11:20;3.50;99.90
54684;DHT22;40582;53.100;6.686;2023-02-28T07:13:48;3.90;99.90
54684;DHT22;40582;53.100;6.686;2023-02-28T07:16:14;3.60;99.90
54684;DHT22;40582;53.100;6.686;2023-02-28T07:18:40;3.60;99.90
54684;DHT22;40582;53.100;6.686;2023-02-28T07:21:08;3.60;99.90
54684;DHT22;40582;53.100;6.686;2023-02-28T07:23:34;3.60;99.90
54684;DHT22;40582;53.100;6.686;2023-02-28T07:26:01;4.00;99.90
54684;DHT22;40582;53.100;6.686;2023-02-28T07:28:27;3.70;99.90
54684;DHT22;40582;53.100;6.686;2023-02-28T07:30:53;3.70;99.90
54684;DHT22;40582;53.100;6.686;2023-02-28T07:33:18;3.70;99.90
54684;DHT22;40582;53.100;6.686;2023-02-28T07:35:44;4.30;99.90
54684;DHT22;40582;53.100;6.686;2023-02-28T07:38:10;4.10;99.90
54684;DHT22;40582;53.100;6.686;2023-02-28T07:40:37;3.80;99.90
54684;DHT22;40582;53.100;6.686;2023-02-28T07:43:03;3.80;99.90
54684;DHT22;40582;53.100;6.686;2023-02-28T07:45:29;3.80;99.90
54684;DHT22;40582;53.100;6.686;2023-02-28T07:47:55;3.90;99.90
54684;DHT22;40582;53.100;6.686;2023-02-28T07:50:21;4.00;99.90
54684;DHT22;40582;53.100;6.686;2023-02-28T07:52:47;3.90;99.90
54684;DHT22;40582;53.100;6.686;2023-02-28T07:55:13;3.90;99.90
54684;DHT22;40582;53.100;6.686;2023-02-28T07:57:40;4.00;99.90
54684;DHT22;40582;53.100;6.686;2023-02-28T08:00:08;4.00;99.90
54684;DHT22;40582;53.100;6.686;2023-02-28T08:02:38;4.10;99.90
54684;DHT22;40582;53.100;6.686;2023-02-28T08:05:04;4.10;99.90
54684;DHT22;40582;53.100;6.686;2023-02-28T08:07:30;4.10;99.90
54684;DHT22;40582;53.100;6.686;2023-02-28T08:09:56;4.20;99.90
54684;DHT22;40582;53.100;6.686;2023-02-28T08:12:21;4.30;99.90
54684;DHT22;40582;53.100;6.686;2023-02-28T08:14:47;4.50;99.90
54684;DHT22;40582;53.100;6.686;2023-02-28T08:17:16;4.70;99.90
54684;DHT22;40582;53.100;6.686;2023-02-28T08:19:41;4.80;99.90
54684;DHT22;40582;53.100;6.686;2023-02-28T08:22:07;4.90;99.90
54684;DHT22;40582;53.100;6.686;2023-02-28T08:24:33;4.80;99.90
54684;DHT22;40582;53.100;6.686;2023-02-28T08:26:59;4.70;99.90
54684;DHT22;40582;53.100;6.686;2023-02-28T08:29:24;4.70;99.90
54684;DHT22;40582;53.100;6.686;2023-02-28T08:31:50;4.70;99.90
54684;DHT22;40582;53.100;6.686;2023-02-28T08:34:16;4.70;99.90
54684;DHT22;40582;53.100;6.686;2023-02-28T08:36:42;4.70;99.90
54684;DHT22;40582;53.100;6.686;2023-02-28T08:39:10;4.70;99.90
54684;DHT22;40582;53.100;6.686;2023-02-28T08:41:36;4.70;99.90
54684;DHT22;40582;53.100;6.686;2023-02-28T08:44:02;4.80;99.90
54684;DHT22;40582;53.100;6.686;2023-02-28T08:46:28;4.90;99.90
54684;DHT22;40582;53.100;6.686;2023-02-28T08:48:55;5.00;99.90
54684;DHT22;40582;53.100;6.686;2023-02-28T08:51:24;5.20;99.90
54684;DHT22;40582;53.100;6.686;2023-02-28T08:53:58;5.50;99.90
54684;DHT22;40582;53.100;6.686;2023-02-28T08:56:25;5.80;99.90
54684;DHT22;40582;53.100;6.686;2023-02-28T08:58:53;5.90;99.90
54684;DHT22;40582;53.100;6.686;2023-02-28T09:01:23;5.90;99.90
54684;DHT22;40582;53.100;6.686;2023-02-28T09:03:50;5.90;99.90
54684;DHT22;40582;53.100;6.686;2023-02-28T09:06:18;6.00;99.90
54684;DHT22;40582;53.100;6.686;2023-02-28T09:08:45;6.10;99.90
54684;DHT22;40582;53.100;6.686;2023-02-28T09:11:11;6.20;99.90
54684;DHT22;40582;53.100;6.686;2023-02-28T09:13:37;6.20;99.90
54684;DHT22;40582;53.100;6.686;2023-02-28T09:16:05;6.30;99.90
54684;DHT22;40582;53.100;6.686;2023-02-28T09:18:31;6.30;99.90
54684;DHT22;40582;53.100;6.686;2023-02-28T09:20:57;6.40;99.90
54684;DHT22;40582;53.100;6.686;2023-02-28T09:23:24;6.50;99.90
54684;DHT22;40582;53.100;6.686;2023-02-28T09:25:52;6.50;99.90
54684;DHT22;40582;53.100;6.686;2023-02-28T09:28:19;6.60;99.90
54684;DHT22;40582;53.100;6.686;2023-02-28T09:30:46;6.60;99.90
54684;DHT22;40582;53.100;6.686;2023-02-28T09:33:13;6.60;99.90
54684;DHT22;40582;53.100;6.686;2023-02-28T09:35:39;6.80;99.90
54684;DHT22;40582;53.100;6.686;2023-02-28T09:38:06;6.80;99.90
54684;DHT22;40582;53.100;6.686;2023-02-28T09:40:36;6.90;99.90
54684;DHT22;40582;53.100;6.686;2023-02-28T09:43:02;6.90;99.90
54684;DHT22;40582;53.100;6.686;2023-02-28T09:45:33;6.90;99.90
54684;DHT22;40582;53.100;6.686;2023-02-28T09:48:12;7.00;99.90
54684;DHT22;40582;53.100;6.686;2023-02-28T09:50:50;7.00;99.90
54684;DHT22;40582;53.100;6.686;2023-02-28T09:53:32;7.00;99.90
54684;DHT22;40582;53.100;6.686;2023-02-28T09:56:04;7.10;99.90
54684;DHT22;40582;53.100;6.686;2023-02-28T10:01:05;7.20;99.90
54684;DHT22;40582;53.100;6.686;2023-02-28T10:03:43;7.30;99.90
54684;DHT22;40582;53.100;6.686;2023-02-28T10:06:17;7.30;99.90
54684;DHT22;40582;53.100;6.686;2023-02-28T10:09:04;7.50;99.90
54684;DHT22;40582;53.100;6.686;2023-02-28T10:11:33;7.60;99.90
54684;DHT22;40582;53.100;6.686;2023-02-28T10:14:14;7.60;99.90
54684;DHT22;40582;53.100;6.686;2023-02-28T10:16:56;7.70;99.90
54684;DHT22;40582;53.100;6.686;2023-02-28T10:19:33;7.60;99.90
54684;DHT22;40582;53.100;6.686;2023-02-28T10:22:15;7.70;99.90
54684;DHT22;40582;53.100;6.686;2023-02-28T10:24:51;7.80;99.90
54684;DHT22;40582;53.100;6.686;2023-02-28T10:27:18;7.80;99.90
54684;DHT22;40582;53.100;6.686;2023-02-28T10:30:03;7.90;99.90
54684;DHT22;40582;53.100;6.686;2023-02-28T10:32:32;8.00;99.90
54684;DHT22;40582;53.100;6.686;2023-02-28T10:35:21;8.00;99.90
54684;DHT22;40582;53.100;6.686;2023-02-28T10:37:52;8.00;99.90
54684;DHT22;40582;53.100;6.686;2023-02-28T10:43:06;8.00;99.90
54684;DHT22;40582;53.100;6.686;2023-02-28T10:51:01;8.20;99.90
54684;DHT22;40582;53.100;6.686;2023-02-28T10:53:58;8.20;99.90
54684;DHT22;40582;53.100;6.686;2023-02-28T10:56:25;8.20;99.90
54684;DHT22;40582;53.100;6.686;2023-02-28T10:59:27;8.20;99.90
54684;DHT22;40582;53.100;6.686;2023-02-28T11:01:53;8.30;99.90
54684;DHT22;40582;53.100;6.686;2023-02-28T11:07:20;8.40;99.90
54684;DHT22;40582;53.100;6.686;2023-02-28T11:09:50;8.40;99.90
54684;DHT22;40582;53.100;6.686;2023-02-28T11:12:37;8.20;99.90
54684;DHT22;40582;53.100;6.686;2023-02-28T11:15:22;7.90;99.90
54684;DHT22;40582;53.100;6.686;2023-02-28T11:20:54;8.00;99.90
54684;DHT22;40582;53.100;6.686;2023-02-28T11:23:25;8.00;99.90
54684;DHT22;40582;53.100;6.686;2023-02-28T11:25:55;7.80;99.90
54684;DHT22;40582;53.100;6.686;2023-02-28T11:28:30;7.60;99.90
54684;DHT22;40582;53.100;6.686;2023-02-28T11:33:47;7.70;99.90
54684;DHT22;40582;53.100;6.686;2023-02-28T11:36:23;7.90;99.90
54684;DHT22;40582;53.100;6.686;2023-02-28T11:38:51;8.20;99.90
54684;DHT22;40582;53.100;6.686;2023-02-28T11:41:25;8.10;99.90
54684;DHT22;40582;53.100;6.686;2023-02-28T11:47:13;7.70;99.90
54684;DHT22;40582;53.100;6.686;2023-02-28T11:49:57;7.30;99.90
54684;DHT22;40582;53.100;6.686;2023-02-28T11:57:59;6.90;99.90
54684;DHT22;40582;53.100;6.686;2023-02-28T12:03:48;7.00;99.90
54684;DHT22;40582;53.100;6.686;2023-02-28T12:09:18;6.90;99.90
54684;DHT22;40582;53.100;6.686;2023-02-28T12:12:07;7.00;99.90
54684;DHT22;40582;53.100;6.686;2023-02-28T12:20:21;8.00;99.90
54684;DHT22;40582;53.100;6.686;2023-02-28T12:23:00;8.50;99.90
54684;DHT22;40582;53.100;6.686;2023-02-28T12:28:26;9.30;99.90
54684;DHT22;40582;53.100;6.686;2023-02-28T12:31:04;9.60;99.90
54684;DHT22;40582;53.100;6.686;2023-02-28T12:33:38;9.90;99.90
54684;DHT22;40582;53.100;6.686;2023-02-28T12:36:10;9.90;99.90
54684;DHT22;40582;53.100;6.686;2023-02-28T12:39:05;10.00;99.90
54684;DHT22;40582;53.100;6.686;2023-02-28T12:41:51;10.00;99.90
54684;DHT22;40582;53.100;6.686;2023-02-28T12:44:34;9.80;99.90
54684;DHT22;40582;53.100;6.686;2023-02-28T12:47:03;9.50;99.90
54684;DHT22;40582;53.100;6.686;2023-02-28T12:49:45;9.40;99.90
54684;DHT22;40582;53.100;6.686;2023-02-28T12:55:35;9.20;99.90
54684;DHT22;40582;53.100;6.686;2023-02-28T13:03:51;8.30;99.90
54684;DHT22;40582;53.100;6.686;2023-02-28T13:09:14;7.80;99.90
54684;DHT22;40582;53.100;6.686;2023-02-28T13:11:49;7.70;99.90
54684;DHT22;40582;53.100;6.686;2023-02-28T13:24:55;7.20;99.90
54684;DHT22;40582;53.100;6.686;2023-02-28T13:27:23;7.30;99.90
54684;DHT22;40582;53.100;6.686;2023-02-28T13:29:49;7.10;99.90
54684;DHT22;40582;53.100;6.686;2023-02-28T13:39:49;7.10;99.90
54684;DHT22;40582;53.100;6.686;2023-02-28T13:47:40;7.80;99.90
54684;DHT22;40582;53.100;6.686;2023-02-28T13:50:38;8.00;99.90
54684;DHT22;40582;53.100;6.686;2023-02-28T13:56:01;8.70;99.90
54684;DHT22;40582;53.100;6.686;2023-02-28T14:04:37;9.00;99.90
54684;DHT22;40582;53.100;6.686;2023-02-28T14:07:08;8.90;99.90
54684;DHT22;40582;53.100;6.686;2023-02-28T14:09:40;8.70;99.90
54684;DHT22;40582;53.100;6.686;2023-02-28T14:18:25;8.00;99.90
54684;DHT22;40582;53.100;6.686;2023-02-28T14:20:57;7.90;99.90
54684;DHT22;40582;53.100;6.686;2023-02-28T14:34:52;7.60;99.90
54684;DHT22;40582;53.100;6.686;2023-02-28T14:37:26;7.60;99.90
54684;DHT22;40582;53.100;6.686;2023-02-28T14:39:53;7.70;99.90
54684;DHT22;40582;53.100;6.686;2023-02-28T14:42:34;7.70;99.90
54684;DHT22;40582;53.100;6.686;2023-02-28T14:45:00;7.70;99.90
54684;DHT22;40582;53.100;6.686;2023-02-28T14:47:31;7.70;99.90
54684;DHT22;40582;53.100;6.686;2023-02-28T14:49:59;7.60;99.90
54684;DHT22;40582;53.100;6.686;2023-02-28T14:52:27;7.60;99.90
54684;DHT22;40582;53.100;6.686;2023-02-28T14:55:05;7.50;99.90
54684;DHT22;40582;53.100;6.686;2023-02-28T14:57:40;7.40;99.90
54684;DHT22;40582;53.100;6.686;2023-02-28T15:00:26;7.30;99.90
54684;DHT22;40582;53.100;6.686;2023-02-28T15:02:53;7.10;99.90
54684;DHT22;40582;53.100;6.686;2023-02-28T15:05:27;7.00;99.90
54684;DHT22;40582;53.100;6.686;2023-02-28T15:08:12;6.90;99.90
54684;DHT22;40582;53.100;6.686;2023-02-28T15:10:40;6.90;99.90
54684;DHT22;40582;53.100;6.686;2023-02-28T15:13:12;6.90;99.90
54684;DHT22;40582;53.100;6.686;2023-02-28T15:15:43;7.00;99.90
54684;DHT22;40582;53.100;6.686;2023-02-28T15:20:47;7.10;99.90
54684;DHT22;40582;53.100;6.686;2023-02-28T15:23:13;7.20;99.90
54684;DHT22;40582;53.100;6.686;2023-02-28T15:25:40;7.30;99.90
54684;DHT22;40582;53.100;6.686;2023-02-28T15:28:21;7.30;99.90
54684;DHT22;40582;53.100;6.686;2023-02-28T15:30:56;7.30;99.90
54684;DHT22;40582;53.100;6.686;2023-02-28T15:33:25;7.20;99.90
54684;DHT22;40582;53.100;6.686;2023-02-28T15:35:51;7.10;99.90
54684;DHT22;40582;53.100;6.686;2023-02-28T15:38:28;7.10;99.90
54684;DHT22;40582;53.100;6.686;2023-02-28T15:40:56;7.00;99.90
54684;DHT22;40582;53.100;6.686;2023-02-28T15:43:27;6.90;99.90
54684;DHT22;40582;53.100;6.686;2023-02-28T15:46:03;6.80;99.90
54684;DHT22;40582;53.100;6.686;2023-02-28T15:51:25;6.50;99.90
54684;DHT22;40582;53.100;6.686;2023-02-28T15:54:07;6.30;99.90
54684;DHT22;40582;53.100;6.686;2023-02-28T15:56:43;6.20;99.90
54684;DHT22;40582;53.100;6.686;2023-02-28T15:59:16;6.10;99.90
54684;DHT22;40582;53.100;6.686;2023-02-28T16:01:43;6.10;99.90
54684;DHT22;40582;53.100;6.686;2023-02-28T16:04:17;6.10;99.90
54684;DHT22;40582;53.100;6.686;2023-02-28T16:06:44;6.10;99.90
54684;DHT22;40582;53.100;6.686;2023-02-28T16:09:15;6.00;99.90
54684;DHT22;40582;53.100;6.686;2023-02-28T16:11:48;6.00;99.90
54684;DHT22;40582;53.100;6.686;2023-02-28T16:14:25;6.00;99.90
54684;DHT22;40582;53.100;6.686;2023-02-28T16:16:55;6.00;99.90
54684;DHT22;40582;53.100;6.686;2023-02-28T16:19:22;5.90;99.90
54684;DHT22;40582;53.100;6.686;2023-02-28T16:21:48;5.90;99.90
54684;DHT22;40582;53.100;6.686;2023-02-28T16:24:14;5.80;99.90
54684;DHT22;40582;53.100;6.686;2023-02-28T16:26:40;5.80;99.90
54684;DHT22;40582;53.100;6.686;2023-02-28T16:29:08;5.70;99.90
54684;DHT22;40582;53.100;6.686;2023-02-28T16:31:37;5.70;99.90
54684;DHT22;40582;53.100;6.686;2023-02-28T16:34:04;5.60;99.90
54684;DHT22;40582;53.100;6.686;2023-02-28T16:36:30;5.50;99.90
54684;DHT22;40582;53.100;6.686;2023-02-28T16:38:56;5.50;99.90
54684;DHT22;40582;53.100;6.686;2023-02-28T16:41:25;5.40;99.90
54684;DHT22;40582;53.100;6.686;2023-02-28T16:43:53;5.40;99.90
54684;DHT22;40582;53.100;6.686;2023-02-28T16:46:20;5.20;99.90
54684;DHT22;40582;53.100;6.686;2023-02-28T16:48:47;5.20;99.90
54684;DHT22;40582;53.100;6.686;2023-02-28T16:51:17;5.10;99.90
54684;DHT22;40582;53.100;6.686;2023-02-28T16:53:44;5.00;99.90
54684;DHT22;40582;53.100;6.686;2023-02-28T16:56:19;4.90;99.90
54684;DHT22;40582;53.100;6.686;2023-02-28T16:58:46;4.90;99.90
54684;DHT22;40582;53.100;6.686;2023-02-28T17:01:12;4.80;99.90
54684;DHT22;40582;53.100;6.686;2023-02-28T17:03:38;4.70;99.90
54684;DHT22;40582;53.100;6.686;2023-02-28T17:06:06;4.60;99.90
54684;DHT22;40582;53.100;6.686;2023-02-28T17:08:32;4.50;99.90
54684;DHT22;40582;53.100;6.686;2023-02-28T17:10:59;4.50;99.90
54684;DHT22;40582;53.100;6.686;2023-02-28T17:13:24;4.40;99.90
54684;DHT22;40582;53.100;6.686;2023-02-28T17:15:50;4.30;99.90
54684;DHT22;40582;53.100;6.686;2023-02-28T17:18:18;4.30;99.90
54684;DHT22;40582;53.100;6.686;2023-02-28T17:20:45;4.20;99.90
54684;DHT22;40582;53.100;6.686;2023-02-28T17:23:11;4.10;99.90
54684;DHT22;40582;53.100;6.686;2023-02-28T17:25:37;4.00;99.90
54684;DHT22;40582;53.100;6.686;2023-02-28T17:28:03;4.00;99.90
54684;DHT22;40582;53.100;6.686;2023-02-28T17:30:29;3.90;99.90
54684;DHT22;40582;53.100;6.686;2023-02-28T17:32:56;3.80;99.90
54684;DHT22;40582;53.100;6.686;2023-02-28T17:35:22;3.80;99.90
54684;DHT22;40582;53.100;6.686;2023-02-28T17:37:48;3.80;99.90
54684;DHT22;40582;53.100;6.686;2023-02-28T17:40:16;3.70;99.90
54684;DHT22;40582;53.100;6.686;2023-02-28T17:42:42;3.70;99.90
54684;DHT22;40582;53.100;6.686;2023-02-28T17:45:08;3.70;99.90
54684;DHT22;40582;53.100;6.686;2023-02-28T17:47:34;3.60;99.90
54684;DHT22;40582;53.100;6.686;2023-02-28T17:50:00;3.50;99.90
54684;DHT22;40582;53.100;6.686;2023-02-28T17:52:25;3.90;99.90
54684;DHT22;40582;53.100;6.686;2023-02-28T17:54:51;3.40;99.90
54684;DHT22;40582;53.100;6.686;2023-02-28T17:57:16;3.40;99.90
54684;DHT22;40582;53.100;6.686;2023-02-28T17:59:43;3.30;99.90
54684;DHT22;40582;53.100;6.686;2023-02-28T18:02:13;3.30;99.90
54684;DHT22;40582;53.100;6.686;2023-02-28T18:04:39;3.20;99.90
54684;DHT22;40582;53.100;6.686;2023-02-28T18:07:11;3.20;99.90
54684;DHT22;40582;53.100;6.686;2023-02-28T18:09:37;3.10;99.90
54684;DHT22;40582;53.100;6.686;2023-02-28T18:12:03;3.70;99.90
54684;DHT22;40582;53.100;6.686;2023-02-28T18:14:29;3.10;99.90
54684;DHT22;40582;53.100;6.686;2023-02-28T18:16:55;3.00;99.90
54684;DHT22;40582;53.100;6.686;2023-02-28T18:19:22;3.10;99.90
54684;DHT22;40582;53.100;6.686;2023-02-28T18:21:50;2.90;99.90
54684;DHT22;40582;53.100;6.686;2023-02-28T18:24:17;2.90;99.90